Terminal Aerodrome Forecast
Issued by NWS

Home | Current Version | Previous Version | Text Only | Print | Product List | Glossary On
Versions: 1 2 3 4 5 6 7 8 9 10 11 12 13 14 15 16 17 18 19 20 21 22 23 24 25 26 27 28 29 30
000
FTUS45 KTFX 232335
TAFBZN
TAF
KBZN 232335Z 2400/2506 29010G16KT P6SM BKN080
     FM240300 26009KT P6SM BKN080
     FM241800 28013KT P6SM FEW080 SCT110
      TEMPO 2419/2423 30013G21KT=

USA.gov is the U.S. government's official web portal to all federal, state and local government web resources and services.